Time;durP1;ratioP1;P1;durP2;ratioP2;P2;SDS_P1;SDS_P2;PMS_P1;PMS_P2;Temp;Humidity;BMP_temperature;BMP_pressure;BME280_temperature;BME280_humidity;BME280_pressure;Samples;Min_cycle;Max_cycle;Signal;HPM_P1;HPM_P2
2022/04/28 00:00:37;;;;;;;11.20;5.00;;;;;;;4.40;61.26;100148.47;5033627;28;20045;-83
2022/04/28 00:03:04;;;;;;;12.23;4.47;;;;;;;4.11;60.87;100111.81;5020226;28;20045;-82
2022/04/28 00:05:30;;;;;;;10.47;4.67;;;;;;;4.09;60.65;100128.28;5016396;28;20514;-81
2022/04/28 00:07:57;;;;;;;7.72;3.13;;;;;;;4.02;55.33;100143.88;5014806;28;20044;-81
2022/04/28 00:10:24;;;;;;;8.68;3.20;;;;;;;4.20;53.04;100157.09;4982052;28;20510;-82
2022/04/28 00:12:50;;;;;;;6.70;3.17;;;;;;;4.19;51.88;100149.25;5015673;28;20046;-83
2022/04/28 00:15:17;;;;;;;4.03;2.50;;;;;;;4.22;51.00;100148.75;5017256;28;20054;-84
2022/04/28 00:17:43;;;;;;;6.63;3.10;;;;;;;4.28;51.36;100158.56;5018532;28;20125;-83
2022/04/28 00:20:10;;;;;;;8.77;2.90;;;;;;;4.15;50.36;100164.34;5018167;28;20403;-84
2022/04/28 00:22:36;;;;;;;9.93;2.75;;;;;;;4.16;49.91;100179.50;5018588;28;20127;-83
2022/04/28 00:25:04;;;;;;;10.15;3.28;;;;;;;4.12;49.80;100157.56;5019281;28;20033;-84
2022/04/28 00:27:30;;;;;;;;;;;;;;;4.26;49.61;100193.19;5020477;28;20073;-84
2022/04/28 00:29:56;;;;;;;9.87;2.83;;;;;;;4.26;50.81;100182.34;5017572;28;19940;-84
2022/04/28 00:32:23;;;;;;;10.65;3.55;;;;;;;4.32;50.68;100175.13;5018959;28;20046;-84
2022/04/28 00:34:49;;;;;;;9.15;2.28;;;;;;;4.48;49.95;100196.75;5016986;28;20037;-84
2022/04/28 00:37:15;;;;;;;12.18;2.67;;;;;;;4.54;50.09;100194.94;5017077;28;20038;-84
2022/04/28 00:39:42;;;;;;;9.85;3.28;;;;;;;4.44;49.15;100175.84;5016724;28;20053;-84
2022/04/28 00:42:15;;;;;;;7.53;2.90;;;;;;;4.48;48.81;100177.78;5015114;28;20030;-83
2022/04/28 00:44:42;;;;;;;13.07;3.38;;;;;;;4.42;49.12;100156.31;5000227;28;20062;-84
2022/04/28 00:47:10;;;;;;;7.05;2.92;;;;;;;4.46;47.92;100160.97;5017989;28;20451;-84
2022/04/28 00:52:25;;;;;;;13.70;3.57;;;;;;;4.81;49.24;100213.94;5016831;28;20041;-84
2022/04/28 00:54:53;;;;;;;9.18;4.22;;;;;;;4.75;49.15;100206.00;5016336;28;20042;-84
2022/04/28 00:57:22;;;;;;;8.48;3.80;;;;;;;4.70;49.29;100188.63;5017824;28;20410;-84
2022/04/28 00:59:49;;;;;;;12.55;4.40;;;;;;;4.72;50.62;100200.00;5017722;28;20133;-84
2022/04/28 01:02:18;;;;;;;17.65;5.15;;;;;;;4.32;50.50;100143.47;5016984;28;20531;-84
2022/04/28 01:04:44;;;;;;;;;;;;;;;4.58;52.55;100212.31;5016920;28;20060;-84
2022/04/28 01:07:11;;;;;;;14.63;4.57;;;;;;;4.18;53.30;100188.22;5017392;28;19921;-86
2022/04/28 01:09:41;;;;;;;12.32;4.82;;;;;;;4.25;54.02;100215.91;5016281;28;20044;-85
2022/04/28 01:12:15;;;;;;;16.05;5.20;;;;;;;4.13;54.83;100207.88;5015144;28;20038;-84
2022/04/28 01:14:45;;;;;;;13.05;5.10;;;;;;;4.06;55.30;100198.31;4999339;28;20049;-84
2022/04/28 01:17:12;;;;;;;11.43;5.70;;;;;;;3.92;55.87;100182.44;5017415;28;20044;-84
2022/04/28 01:19:43;;;;;;;14.88;5.68;;;;;;;3.88;56.00;100189.41;5016881;28;20502;-84
2022/04/28 01:22:10;;;;;;;15.20;5.43;;;;;;;3.81;56.42;100186.06;5017507;28;20041;-84
2022/04/28 01:24:37;;;;;;;12.35;4.88;;;;;;;3.87;54.92;100222.09;5018143;28;20128;-83
2022/04/28 01:27:07;;;;;;;14.02;5.35;;;;;;;3.82;54.91;100216.63;5015599;28;20419;-85
2022/04/28 01:29:34;;;;;;;11.90;5.03;;;;;;;3.70;54.56;100203.16;5017649;28;20041;-84
2022/04/28 01:32:02;;;;;;;19.25;5.85;;;;;;;3.69;55.11;100207.75;5019211;28;20042;-85
2022/04/28 01:34:33;;;;;;;16.23;5.28;;;;;;;3.67;54.72;100209.88;5003466;28;20052;-85
2022/04/28 01:36:59;;;;;;;18.92;5.28;;;;;;;3.68;53.88;100224.25;5017409;28;20048;-83
2022/04/28 01:39:27;;;;;;;15.10;5.32;;;;;;;3.45;53.50;100193.56;5017646;28;20129;-84
2022/04/28 01:41:55;;;;;;;13.43;4.57;;;;;;;3.39;52.73;100196.44;5016957;28;20046;-82
2022/04/28 01:44:21;;;;;;;14.07;4.22;;;;;;;3.38;51.32;100201.03;5016106;28;20050;-85
2022/04/28 01:46:47;;;;;;;18.88;4.20;;;;;;;3.52;51.24;100226.69;4998834;28;20034;-87
2022/04/28 01:49:37;;;;;;;8.50;3.13;;;;;;;3.34;50.48;100243.09;5016092;28;20163;-84
2022/04/28 01:55:21;;;;;;;8.38;4.13;;;;;;;3.04;50.56;100230.66;5018213;28;20042;-83
2022/04/28 01:57:54;;;;;;;16.00;3.75;;;;;;;3.25;50.36;100248.09;5020635;28;20085;-84
2022/04/28 02:00:46;;;;;;;9.57;3.72;;;;;;;3.08;50.31;100222.91;5017869;28;20474;-84
2022/04/28 02:03:14;;;;;;;8.25;4.28;;;;;;;3.20;49.74;100263.38;5019231;28;20046;-86
2022/04/28 02:05:40;;;;;;;10.70;4.03;;;;;;;3.16;49.57;100265.72;5017992;28;20128;-84
2022/04/28 02:08:08;;;;;;;9.93;3.92;;;;;;;3.13;49.67;100271.63;5015010;28;20821;-82
2022/04/28 02:10:34;;;;;;;13.55;4.10;;;;;;;2.99;49.81;100249.47;5016386;28;20054;-85
2022/04/28 02:13:03;;;;;;;16.92;4.50;;;;;;;3.02;49.75;100256.28;5015736;28;20045;-84
2022/04/28 02:16:05;;;;;;;8.23;4.18;;;;;;;3.14;49.24;100267.03;5013496;28;20586;-80
2022/04/28 02:18:53;;;;;;;10.50;4.38;;;;;;;3.22;49.54;100275.59;5011445;28;20045;-80
2022/04/28 02:21:20;;;;;;;10.02;4.78;;;;;;;3.35;49.99;100274.47;5012376;28;20041;-81
2022/04/28 02:23:46;;;;;;;13.00;4.47;;;;;;;3.40;50.64;100266.44;5013222;28;20038;-79
2022/04/28 02:26:16;;;;;;;16.63;4.60;;;;;;;3.46;49.60;100268.19;5014572;28;20034;-83
2022/04/28 02:28:43;;;;;;;19.83;5.18;;;;;;;3.38;50.20;100255.09;5013806;28;20053;-83
2022/04/28 02:31:10;;;;;;;12.20;4.97;;;;;;;3.52;50.15;100264.53;5014238;28;20120;-83
2022/04/28 02:33:36;;;;;;;20.50;4.80;;;;;;;3.36;49.70;100253.69;4997173;28;20037;-83
2022/04/28 02:36:08;;;;;;;14.15;4.88;;;;;;;3.44;50.96;100274.91;5014348;28;20046;-83
2022/04/28 02:38:36;;;;;;;10.52;5.35;;;;;;;3.27;52.32;100272.97;5014224;28;20095;-82
2022/04/28 02:41:06;;;;;;;13.05;5.82;;;;;;;3.33;52.97;100282.00;5014110;28;20038;-83
2022/04/28 02:43:34;;;;;;;18.27;6.07;;;;;;;3.25;53.67;100274.28;5014390;28;20045;-84
2022/04/28 02:46:10;;;;;;;15.85;5.57;;;;;;;3.01;54.17;100257.31;4997695;28;20053;-83
2022/04/28 02:48:50;;;;;;;17.40;5.93;;;;;;;3.03;54.62;100284.94;5014483;28;20033;-82
2022/04/28 02:51:20;;;;;;;12.07;5.90;;;;;;;3.09;54.63;100280.44;4981967;28;20530;-84
2022/04/28 02:53:46;;;;;;;15.68;6.30;;;;;;;3.21;54.81;100287.47;5016907;28;20073;-87
2022/04/28 02:56:13;;;;;;;;;;;;;;;3.26;53.68;100289.44;5015276;28;20046;-84
2022/04/28 02:58:40;;;;;;;22.67;5.60;;;;;;;3.34;53.15;100304.44;5006991;28;19909;-83
2022/04/28 03:01:08;;;;;;;14.82;5.00;;;;;;;3.07;51.23;100267.16;5036487;28;20069;-84
2022/04/28 03:03:35;;;;;;;13.63;5.85;;;;;;;3.08;50.05;100285.03;5030419;28;20129;-84
2022/04/28 03:11:35;;;;;;;12.70;4.50;;;;;;;3.19;48.45;100299.56;5013951;28;20049;-86
2022/04/28 03:14:02;;;;;;;14.10;3.50;;;;;;;3.29;47.21;100313.28;5014738;28;20042;-85
2022/04/28 03:16:30;;;;;;;12.82;3.40;;;;;;;3.02;45.58;100276.00;4982834;28;20057;-83
2022/04/28 03:19:03;;;;;;;9.82;3.42;;;;;;;3.27;45.71;100304.56;4982417;28;20470;-83
2022/04/28 03:21:32;;;;;;;18.00;3.63;;;;;;;3.36;44.21;100322.06;5012696;28;20054;-86
2022/04/28 03:23:59;;;;;;;10.95;3.67;;;;;;;3.08;45.26;100287.75;4996055;28;20057;-83
2022/04/28 03:26:25;;;;;;;13.52;3.25;;;;;;;3.32;45.66;100326.31;5013412;28;20045;-83
2022/04/28 03:28:52;;;;;;;14.10;3.85;;;;;;;3.36;46.72;100323.94;5012102;28;20045;-83
2022/04/28 03:31:18;;;;;;;11.15;3.72;;;;;;;3.29;44.26;100313.28;5014088;28;20050;-83
2022/04/28 03:34:04;;;;;;;10.93;3.00;;;;;;;3.28;43.67;100317.88;5013970;28;20058;-84
2022/04/28 03:39:16;;;;;;;13.93;3.92;;;;;;;3.50;43.33;100355.84;5016837;28;20060;-85
2022/04/28 03:41:43;;;;;;;8.20;3.40;;;;;;;3.35;44.05;100333.13;4998750;28;20045;-83
2022/04/28 03:44:10;;;;;;;9.98;4.30;;;;;;;3.44;44.83;100345.16;5015792;28;20128;-83
2022/04/28 03:46:38;;;;;;;9.38;4.13;;;;;;;3.32;44.51;100337.13;5014721;28;20046;-82
2022/04/28 03:49:05;;;;;;;12.25;4.38;;;;;;;3.48;45.14;100340.94;5013759;28;20046;-85
2022/04/28 03:51:31;;;;;;;14.45;4.70;;;;;;;3.57;44.56;100357.59;5017424;28;20041;-83
2022/04/28 03:54:02;;;;;;;17.63;4.45;;;;;;;3.63;44.64;100343.94;5013895;28;20048;-82
2022/04/28 03:56:34;;;;;;;23.05;5.15;;;;;;;3.88;45.34;100364.41;5017782;28;20046;-81
2022/04/28 03:59:06;;;;;;;23.70;5.00;;;;;;;3.68;44.38;100357.56;5012642;28;20058;-82
2022/04/28 04:01:51;;;;;;;13.75;4.45;;;;;;;3.69;44.80;100340.25;4986769;28;20125;-84
2022/04/28 04:04:18;;;;;;;17.00;5.35;;;;;;;3.95;45.58;100355.06;5032530;28;20091;-83
2022/04/28 04:06:50;;;;;;;16.10;5.47;;;;;;;3.97;45.30;100354.81;5015073;28;20046;-83
2022/04/28 04:09:35;;;;;;;14.13;4.47;;;;;;;4.15;43.42;100370.84;5001961;28;20503;-82
2022/04/28 04:12:05;;;;;;;47.33;7.03;;;;;;;4.19;44.66;100357.63;5019247;28;20072;-85
2022/04/28 04:14:48;;;;;;;25.70;5.68;;;;;;;4.20;44.51;100367.38;4989631;28;20471;-82
2022/04/28 04:17:17;;;;;;;11.88;5.35;;;;;;;4.22;44.29;100381.50;5002585;28;20423;-82
2022/04/28 04:19:44;;;;;;;16.33;4.93;;;;;;;4.13;43.68;100354.00;5018780;28;20038;-84
2022/04/28 04:22:16;;;;;;;12.27;4.43;;;;;;;4.32;44.23;100391.69;5022120;28;20053;-83
2022/04/28 04:24:43;;;;;;;12.83;5.00;;;;;;;3.97;44.47;100368.34;5020342;28;20050;-81
2022/04/28 04:27:15;;;;;;;22.38;5.50;;;;;;;4.18;43.88;100383.06;5006992;28;20048;-86
2022/04/28 04:32:17;;;;;;;12.13;4.88;;;;;;;4.33;43.61;100398.72;4980718;28;20050;-84
2022/04/28 04:32:48;;;;;;;25.60;5.78;;;;;;;4.64;43.33;100400.88;5026606;28;20049;-84
2022/04/28 04:35:24;;;;;;;20.83;5.78;;;;;;;4.57;43.19;100388.56;5037191;28;20076;-80
2022/04/28 04:37:55;;;;;;;17.58;5.78;;;;;;;4.76;42.07;100391.81;5018294;28;20042;-80
2022/04/28 04:40:26;;;;;;;24.23;5.00;;;;;;;4.90;40.94;100393.97;5023556;28;20034;-79
2022/04/28 04:42:53;;;;;;;16.55;4.68;;;;;;;5.29;40.47;100406.66;5013661;28;20411;-76
2022/04/28 04:45:21;;;;;;;26.92;4.90;;;;;;;5.24;40.38;100414.75;5013027;28;20046;-77
2022/04/28 04:47:58;;;;;;;43.45;6.25;;;;;;;5.35;41.43;100421.94;5012035;28;20069;-77
2022/04/28 04:50:52;;;;;;;19.33;5.18;;;;;;;5.30;39.74;100416.47;5014629;28;20057;-76
2022/04/28 04:53:48;;;;;;;32.47;5.65;;;;;;;5.39;39.69;100417.66;5013096;28;20590;-74
2022/04/28 04:56:14;;;;;;;36.50;6.05;;;;;;;5.25;38.89;100430.75;5013866;28;20088;-75
2022/04/28 04:58:41;;;;;;;34.00;5.47;;;;;;;5.12;40.18;100420.28;5011444;28;20065;-79
2022/04/28 05:01:10;;;;;;;20.45;5.28;;;;;;;5.06;40.03;100432.91;4996618;28;20458;-79
2022/04/28 05:03:36;;;;;;;23.63;6.67;;;;;;;5.14;40.90;100434.41;5013514;28;20137;-81
2022/04/28 05:06:26;;;;;;;41.78;6.13;;;;;;;5.17;39.61;100428.47;5012663;28;20041;-78
2022/04/28 05:09:01;;;;;;;30.48;6.13;;;;;;;5.12;40.44;100434.63;4995692;28;20064;-82
2022/04/28 05:11:27;;;;;;;26.10;6.60;;;;;;;4.83;39.83;100392.47;4995491;28;20062;-78
2022/04/28 05:14:20;;;;;;;38.15;6.80;;;;;;;5.13;39.89;100430.03;5009498;28;20050;-82
2022/04/28 05:16:48;;;;;;;37.17;8.00;;;;;;;5.21;39.44;100431.50;4995280;28;20041;-84
2022/04/28 05:19:39;;;;;;;57.15;8.45;;;;;;;5.27;40.63;100444.88;5011223;28;20052;-82
2022/04/28 05:22:42;;;;;;;19.85;5.90;;;;;;;5.21;38.96;100440.47;5009558;28;20064;-80
2022/04/28 05:25:48;;;;;;;28.85;5.85;;;;;;;4.98;38.83;100427.13;5011316;28;20033;-81
2022/04/28 05:28:32;;;;;;;18.25;6.07;;;;;;;5.23;39.11;100441.03;5009883;28;20042;-80
2022/04/28 05:31:21;;;;;;;27.33;6.57;;;;;;;5.21;39.14;100445.06;4983402;28;20073;-82
2022/04/28 05:34:06;;;;;;;21.85;6.25;;;;;;;5.28;39.19;100432.16;5009496;28;20081;-81
2022/04/28 05:36:44;;;;;;;50.88;7.15;;;;;;;5.30;39.32;100430.84;4994786;28;20120;-82
2022/04/28 05:39:11;;;;;;;19.50;5.75;;;;;;;5.18;37.68;100449.09;4992788;28;20061;-80
2022/04/28 05:41:38;;;;;;;;;;;;;;;5.22;37.35;100441.28;4976579;28;20132;-80
2022/04/28 05:46:51;;;;;;;23.05;5.97;;;;;;;5.24;37.82;100444.56;5008248;28;20049;-78
2022/04/28 05:49:18;;;;;;;20.25;5.35;;;;;;;5.19;37.20;100448.81;4991615;28;20040;-79
2022/04/28 05:51:44;;;;;;;11.75;4.22;;;;;;;5.35;37.24;100451.75;4975279;28;20053;-77
2022/04/28 05:54:14;;;;;;;28.92;4.88;;;;;;;5.22;36.66;100447.50;4988920;28;20061;-78
2022/04/28 05:56:42;;;;;;;23.67;6.25;;;;;;;5.28;36.60;100453.84;5004041;28;20411;-80
2022/04/28 05:59:11;;;;;;;11.50;4.55;;;;;;;5.37;37.68;100447.75;4971110;28;20061;-80
2022/04/28 06:01:46;;;;;;;15.38;4.47;;;;;;;5.48;36.32;100443.25;4988751;28;20073;-79
2022/04/28 06:04:16;;;;;;;24.48;6.90;;;;;;;5.58;37.54;100435.25;4988300;28;20034;-80
2022/04/28 06:06:46;;;;;;;25.55;5.90;;;;;;;5.83;36.88;100447.50;4955940;28;20038;-80
2022/04/28 06:09:22;;;;;;;19.20;4.95;;;;;;;6.00;36.93;100452.88;4986414;28;20050;-79
2022/04/28 06:11:49;;;;;;;29.95;8.95;;;;;;;6.06;36.03;100465.41;5002711;28;20172;-80
2022/04/28 06:14:15;;;;;;;15.40;4.65;;;;;;;6.06;35.72;100446.41;5002893;28;20137;-81
2022/04/28 06:17:01;;;;;;;11.52;4.35;;;;;;;6.10;35.99;100450.28;4988344;28;20039;-86
2022/04/28 06:19:28;;;;;;;24.17;4.93;;;;;;;5.97;35.35;100456.09;5004254;28;20195;-86
2022/04/28 06:22:17;;;;;;;23.83;4.95;;;;;;;6.17;37.59;100460.94;4987005;28;20068;-88
2022/04/28 06:24:51;;;;;;;18.92;4.90;;;;;;;6.12;35.69;100458.97;5002329;28;20038;-76
2022/04/28 06:27:20;;;;;;;13.68;3.78;;;;;;;6.22;35.72;100440.06;4984825;28;20042;-78
2022/04/28 06:29:50;;;;;;;26.45;5.70;;;;;;;6.16;33.72;100464.69;5001360;28;20395;-78
2022/04/28 06:32:18;;;;;;;11.38;3.97;;;;;;;6.20;33.59;100465.84;4999805;28;20092;-77
2022/04/28 06:35:18;;;;;;;36.55;5.22;;;;;;;6.01;34.14;100465.38;5000104;28;20094;-77
2022/04/28 06:37:47;;;;;;;19.70;3.80;;;;;;;6.23;33.83;100457.19;4984012;28;20045;-76
2022/04/28 06:40:14;;;;;;;17.20;3.40;;;;;;;6.37;34.00;100457.59;4983140;28;20049;-77
2022/04/28 06:42:43;;;;;;;33.03;3.88;;;;;;;6.42;32.94;100457.63;5002326;28;20046;-78
2022/04/28 06:45:30;;;;;;;18.67;3.85;;;;;;;6.70;33.15;100470.94;4996778;28;20503;-81
2022/04/28 06:48:14;;;;;;;13.95;3.95;;;;;;;6.62;31.26;100465.97;4985749;28;20061;-79
2022/04/28 06:50:40;;;;;;;37.65;4.40;;;;;;;6.28;31.03;100463.47;4983889;28;20188;-79
2022/04/28 06:53:30;;;;;;;8.60;3.10;;;;;;;6.36;29.39;100467.66;5009887;28;20061;-78
2022/04/28 06:55:59;;;;;;;14.45;3.38;;;;;;;6.48;30.86;100460.13;4969958;28;20077;-79
2022/04/28 06:58:29;;;;;;;10.98;3.08;;;;;;;6.69;31.22;100454.88;4987397;28;20133;-77
2022/04/28 07:00:59;;;;;;;29.95;5.07;;;;;;;6.73;32.39;100450.59;4965180;28;20037;-77
2022/04/28 07:03:27;;;;;;;17.75;4.63;;;;;;;6.91;33.28;100460.22;4997384;28;20085;-77
2022/04/28 07:05:59;;;;;;;47.50;7.05;;;;;;;7.04;32.80;100460.59;4982082;28;20042;-77
2022/04/28 07:08:25;;;;;;;19.23;4.22;;;;;;;6.76;31.33;100480.78;4980337;28;20039;-77
2022/04/28 07:10:52;;;;;;;11.27;3.80;;;;;;;6.82;30.81;100458.00;4986263;28;20049;-78
2022/04/28 07:13:21;;;;;;;11.55;3.55;;;;;;;6.93;30.20;100469.75;4966196;28;20189;-78
2022/04/28 07:16:06;;;;;;;30.38;4.22;;;;;;;7.11;30.37;100475.84;4985054;28;20042;-78
2022/04/28 07:18:47;;;;;;;26.35;4.30;;;;;;;7.22;30.10;100462.09;4984540;28;20046;-78
2022/04/28 07:21:17;;;;;;;12.25;3.70;;;;;;;7.21;29.08;100465.06;4999267;28;20087;-76
2022/04/28 07:23:44;;;;;;;19.00;3.70;;;;;;;7.03;30.20;100464.41;4998659;28;20038;-77
2022/04/28 07:26:11;;;;;;;40.45;6.53;;;;;;;7.21;31.31;100463.16;4992848;28;20050;-76
2022/04/28 07:28:38;;;;;;;24.92;4.72;;;;;;;7.25;28.74;100466.16;4983126;28;20092;-77
2022/04/28 07:31:27;;;;;;;49.63;5.43;;;;;;;7.30;30.83;100461.56;4984117;28;20876;-79
2022/04/28 07:34:25;;;;;;;19.42;3.75;;;;;;;7.49;30.16;100467.41;4979523;28;20423;-78
2022/04/28 07:37:09;;;;;;;11.57;3.10;;;;;;;7.63;29.93;100462.28;4991264;28;20053;-77
2022/04/28 07:39:59;;;;;;;14.77;3.13;;;;;;;7.75;28.01;100462.09;4982904;28;20073;-78
2022/04/28 07:42:40;;;;;;;16.33;3.60;;;;;;;7.92;28.82;100459.16;4980699;28;20042;-77
2022/04/28 07:45:07;;;;;;;11.05;3.67;;;;;;;7.86;29.24;100447.41;4950127;28;20073;-79
2022/04/28 07:47:35;;;;;;;19.75;3.75;;;;;;;7.93;28.49;100458.06;4981573;28;20056;-78
2022/04/28 07:50:11;;;;;;;15.18;3.47;;;;;;;7.99;28.55;100462.44;4981806;28;20042;-82
2022/04/28 07:52:38;;;;;;;36.08;6.13;;;;;;;7.67;28.45;100441.63;4968930;28;20856;-81
2022/04/28 07:55:07;;;;;;;27.42;4.20;;;;;;;7.74;28.27;100452.25;4991965;28;20056;-84
2022/04/28 07:57:35;;;;;;;;;;;;;;;7.59;27.79;100469.34;4977151;28;20058;-82
2022/04/28 08:00:05;;;;;;;13.57;4.50;;;;;;;7.54;27.01;100453.00;5001836;28;20866;-83
2022/04/28 08:02:42;;;;;;;10.18;3.70;;;;;;;7.43;26.23;100462.19;5000245;28;20152;-83
2022/04/28 08:05:15;;;;;;;10.15;3.53;;;;;;;7.54;27.43;100463.88;4998901;28;20998;-83
2022/04/28 08:07:44;;;;;;;42.08;6.93;;;;;;;7.68;27.76;100464.22;4998736;28;20100;-82
2022/04/28 08:10:12;;;;;;;9.82;3.33;;;;;;;7.88;26.77;100466.19;4966402;28;20034;-82
2022/04/28 08:12:39;;;;;;;12.50;4.07;;;;;;;7.85;25.96;100462.13;4992777;28;20049;-88
2022/04/28 08:15:25;;;;;;;25.02;4.38;;;;;;;7.88;28.04;100452.59;4979286;28;20073;-81
2022/04/28 08:17:52;;;;;;;16.58;3.90;;;;;;;7.81;25.59;100458.28;4984743;28;20046;-81
2022/04/28 08:20:18;;;;;;;7.72;2.58;;;;;;;7.53;24.92;100463.06;5010138;28;20087;-79
2022/04/28 08:22:44;;;;;;;15.60;4.07;;;;;;;7.48;25.47;100471.22;4951692;28;20717;-82
2022/04/28 08:25:13;;;;;;;18.17;4.63;;;;;;;7.49;27.19;100456.53;4988095;28;20521;-83
2022/04/28 08:27:41;;;;;;;25.85;4.43;;;;;;;7.59;26.16;100477.53;4953644;28;20045;-85
2022/04/28 08:30:08;;;;;;;13.77;3.67;;;;;;;7.51;24.89;100464.41;5012390;28;20074;-83
2022/04/28 08:32:34;;;;;;;12.25;3.72;;;;;;;7.62;24.89;100460.66;5024478;28;20062;-83
2022/04/28 08:35:01;;;;;;;;;;;;;;;7.86;25.58;100460.22;4979408;28;20038;-82
2022/04/28 08:37:28;;;;;;;42.85;8.18;;;;;;;8.27;29.36;100461.13;5013124;28;19979;-83
2022/04/28 08:39:54;;;;;;;12.97;4.10;;;;;;;8.14;24.76;100448.84;4980480;28;20026;-81
2022/04/28 08:42:22;;;;;;;33.97;5.63;;;;;;;7.93;25.89;100455.34;4984857;28;20034;-82
2022/04/28 08:44:59;;;;;;;26.00;5.05;;;;;;;7.87;26.14;100454.50;4962870;28;20045;-81
2022/04/28 08:47:37;;;;;;;16.77;4.07;;;;;;;8.16;25.80;100457.56;4978218;28;20033;-80
2022/04/28 08:50:25;;;;;;;35.97;7.90;;;;;;;8.45;25.41;100459.84;4998552;28;20049;-81
2022/04/28 08:53:04;;;;;;;24.05;5.30;;;;;;;8.50;25.39;100443.50;5008437;28;20084;-81
2022/04/28 08:55:37;;;;;;;22.98;4.13;;;;;;;8.80;25.67;100459.03;5026638;28;20054;-81
2022/04/28 08:58:05;;;;;;;13.90;4.75;;;;;;;8.95;24.75;100466.41;4980130;28;20488;-83
2022/04/28 09:00:38;;;;;;;10.23;3.65;;;;;;;8.75;24.75;100453.59;4988865;28;20042;-81
2022/04/28 09:03:43;;;;;;;24.58;5.03;;;;;;;8.94;25.18;100460.13;5026625;28;20041;-83
2022/04/28 09:06:41;;;;;;;14.18;3.50;;;;;;;9.17;24.36;100447.00;5014416;28;20716;-82
2022/04/28 09:09:28;;;;;;;25.25;4.28;;;;;;;9.67;25.34;100452.59;5010937;28;20143;-80
2022/04/28 09:12:09;;;;;;;18.88;4.80;;;;;;;9.57;23.37;100451.56;5036960;28;20057;-81
2022/04/28 09:15:14;;;;;;;49.45;6.03;;;;;;;9.07;24.17;100436.09;5026256;28;20536;-78
2022/04/28 09:17:47;;;;;;;16.77;4.68;;;;;;;9.24;23.95;100442.09;5012975;28;20139;-78
2022/04/28 09:20:21;;;;;;;15.93;4.25;;;;;;;9.22;25.36;100440.72;4995215;28;20037;-79
2022/04/28 09:22:53;;;;;;;12.88;3.47;;;;;;;9.27;24.45;100443.44;5011155;28;20509;-81
2022/04/28 09:25:22;;;;;;;13.30;4.20;;;;;;;9.38;25.79;100420.50;5015073;28;20048;-83
2022/04/28 09:27:54;;;;;;;16.05;4.20;;;;;;;9.08;23.49;100435.03;5031336;28;20045;-83
2022/04/28 09:30:24;;;;;;;13.50;4.70;;;;;;;8.89;24.55;100443.75;5015170;28;20126;-85
2022/04/28 09:33:13;;;;;;;11.43;3.97;;;;;;;8.93;24.54;100431.22;5015221;28;20457;-82
2022/04/28 09:36:09;;;;;;;15.77;7.30;;;;;;;9.13;25.15;100440.47;5032696;28;20037;-83
2022/04/28 09:38:55;;;;;;;13.32;4.55;;;;;;;8.79;25.34;100434.78;5012161;28;20073;-83
2022/04/28 09:44:12;;;;;;;19.75;4.15;;;;;;;8.66;24.42;100449.78;4975912;28;20042;-84
2022/04/28 09:46:45;;;;;;;13.50;4.38;;;;;;;8.89;24.96;100451.13;4993131;28;20038;-81
2022/04/28 09:49:17;;;;;;;11.30;3.92;;;;;;;9.17;24.12;100456.03;5001614;28;20042;-84
2022/04/28 09:52:15;;;;;;;12.15;4.20;;;;;;;9.64;25.96;100435.69;4999599;28;20050;-83
2022/04/28 09:55:15;;;;;;;16.73;3.55;;;;;;;9.99;24.20;100438.53;5001477;28;20053;-84
2022/04/28 09:58:11;;;;;;;40.75;6.07;;;;;;;10.26;24.80;100459.97;5003581;28;20511;-80
2022/04/28 10:00:39;;;;;;;8.88;3.70;;;;;;;9.65;23.05;100464.63;4975441;28;20333;-82
2022/04/28 10:03:09;;;;;;;16.25;4.50;;;;;;;9.63;23.44;100442.25;4991829;28;20042;-82
2022/04/28 10:05:39;;;;;;;17.10;4.00;;;;;;;9.77;23.09;100456.13;5000811;28;20103;-81
2022/04/28 10:08:25;;;;;;;21.73;4.38;;;;;;;9.89;23.61;100448.38;4997490;28;20044;-83
2022/04/28 10:10:57;;;;;;;12.50;4.05;;;;;;;9.64;23.16;100449.34;4995865;28;20403;-83
2022/04/28 10:13:27;;;;;;;14.18;4.10;;;;;;;9.77;22.87;100450.66;4990197;28;20034;-83
2022/04/28 10:16:04;;;;;;;9.23;3.78;;;;;;;10.00;23.71;100445.59;4995297;28;20038;-82
2022/04/28 10:18:41;;;;;;;11.70;4.40;;;;;;;10.49;24.63;100445.59;5007509;28;20049;-82
2022/04/28 10:21:10;;;;;;;;;;;;;;;10.68;24.49;100453.94;5004522;28;20061;-81
2022/04/28 10:32:57;;;;;;;12.20;4.63;;;;;;;10.65;23.15;100456.44;5009682;28;20041;-84
2022/04/28 10:35:35;;;;;;;15.68;4.18;;;;;;;10.45;22.24;100457.41;5014861;28;20058;-83
2022/04/28 10:38:09;;;;;;;20.45;4.38;;;;;;;10.44;23.91;100434.72;5023576;28;20022;-83
2022/04/28 10:40:43;;;;;;;13.57;4.05;;;;;;;10.44;23.02;100403.84;4995408;28;20137;-86
2022/04/28 10:43:20;;;;;;;14.40;4.05;;;;;;;10.15;23.52;100442.00;5012242;28;20508;-81
2022/04/28 10:45:49;;;;;;;25.10;4.72;;;;;;;10.02;23.86;100459.81;4985686;28;20511;-79
2022/04/28 10:48:32;;;;;;;16.42;4.80;;;;;;;9.39;23.35;100443.94;4994528;28;20053;-83
2022/04/28 10:51:06;;;;;;;20.88;6.25;;;;;;;9.36;24.09;100456.22;5007678;28;20034;-81
2022/04/28 10:53:33;;;;;;;20.85;5.28;;;;;;;9.40;24.27;100446.41;5009477;28;20041;-82
2022/04/28 10:56:12;;;;;;;14.30;4.97;;;;;;;9.56;23.77;100451.81;5011920;28;20084;-82
2022/04/28 10:58:39;;;;;;;21.90;5.07;;;;;;;9.80;24.07;100443.78;5008788;28;20107;-84
2022/04/28 11:01:05;;;;;;;12.60;4.22;;;;;;;9.80;24.76;100430.97;5009453;28;20069;-84
2022/04/28 11:03:52;;;;;;;7.80;4.00;;;;;;;9.84;24.35;100445.69;5008933;28;20048;-80
2022/04/28 11:06:34;;;;;;;10.38;3.92;;;;;;;9.82;24.73;100441.59;5009363;28;20049;-80
2022/04/28 11:09:06;;;;;;;18.00;4.70;;;;;;;9.64;23.96;100443.06;5008680;28;20411;-83
2022/04/28 11:11:45;;;;;;;32.42;6.30;;;;;;;9.55;25.17;100442.81;5012685;28;20120;-82
2022/04/28 11:14:12;;;;;;;27.63;4.80;;;;;;;9.74;24.79;100439.47;5010064;28;20163;-82
2022/04/28 11:16:42;;;;;;;;;;;;;;;10.05;25.39;100442.84;5000355;28;20042;-85
2022/04/28 11:19:11;;;;;;;19.83;4.60;;;;;;;9.64;23.46;100432.94;4993570;28;19918;-81
2022/04/28 11:21:39;;;;;;;10.85;3.97;;;;;;;9.22;24.01;100438.81;4993689;28;20154;-78
2022/04/28 11:24:06;;;;;;;;;;;;;;;9.03;24.42;100446.75;4994566;28;20470;-79
2022/04/28 11:26:39;;;;;;;21.52;4.60;;;;;;;9.21;25.51;100428.19;4994360;28;20394;-80
2022/04/28 11:29:28;;;;;;;33.83;7.18;;;;;;;9.66;25.23;100435.38;4991968;28;20049;-81
2022/04/28 11:31:54;;;;;;;19.15;5.07;;;;;;;9.94;24.38;100425.72;4984241;28;20453;-79
2022/04/28 11:34:21;;;;;;;17.33;4.72;;;;;;;9.87;25.12;100398.72;5005044;28;20049;-80
2022/04/28 11:36:47;;;;;;;22.33;4.43;;;;;;;9.70;23.71;100400.16;4993890;28;20037;-81
2022/04/28 11:39:13;;;;;;;10.90;4.10;;;;;;;9.71;25.75;100410.00;5012014;28;20030;-81
2022/04/28 11:41:42;;;;;;;52.30;7.28;;;;;;;9.88;26.37;100418.66;4995906;28;20479;-80
2022/04/28 11:44:10;;;;;;;12.75;4.45;;;;;;;10.07;23.99;100410.63;5012183;28;20184;-81
2022/04/28 11:46:49;;;;;;;21.70;5.80;;;;;;;10.15;25.63;100417.41;5002749;28;20034;-81
2022/04/28 11:49:17;;;;;;;14.07;5.22;;;;;;;10.33;24.22;100405.81;4986653;28;20450;-79
2022/04/28 11:51:44;;;;;;;28.38;5.53;;;;;;;10.67;23.55;100403.09;4977158;28;20042;-78
2022/04/28 11:54:26;;;;;;;;;;;;;;;11.07;23.90;100406.53;4995102;28;20042;-80
2022/04/28 11:57:10;;;;;;;11.57;4.90;;;;;;;10.71;22.58;100409.63;4993592;28;20273;-77
2022/04/28 11:59:43;;;;;;;9.05;4.45;;;;;;;10.49;22.64;100406.50;4994307;28;20535;-79
2022/04/28 12:02:33;;;;;;;27.30;5.63;;;;;;;10.14;23.34;100404.84;4994794;28;20038;-79
2022/04/28 12:05:03;;;;;;;18.52;5.55;;;;;;;10.27;24.08;100394.13;4999075;28;20511;-81
2022/04/28 12:07:32;;;;;;;24.67;5.35;;;;;;;10.35;24.17;100396.22;5004729;28;20181;-84
2022/04/28 12:15:34;;;;;;;24.58;6.32;;;;;;;11.16;24.68;100363.75;5013580;28;20507;-82
2022/04/28 12:21:00;;;;;;;14.43;4.95;;;;;;;11.49;24.35;100372.94;5004198;28;20061;-83
2022/04/28 12:23:48;;;;;;;18.92;5.03;;;;;;;11.63;23.18;100367.56;4961837;28;20065;-81
2022/04/28 12:26:21;;;;;;;12.43;5.65;;;;;;;11.46;23.66;100324.25;4994213;28;20134;-83
2022/04/28 12:28:48;;;;;;;39.13;6.32;;;;;;;11.83;23.37;100369.22;4993341;28;20050;-85
2022/04/28 12:31:15;;;;;;;;;;;;;;;11.76;22.95;100363.28;4987089;28;20038;-86
2022/04/28 12:33:50;;;;;;;28.20;5.55;;;;;;;11.34;23.23;100359.44;4978193;28;20339;-83